createdAt,value
2016-02-21T00:00:00.442Z,0
2016-02-21T00:01:00.307Z,0
2016-02-21T00:02:00.387Z,0
2016-02-21T00:03:00.406Z,0
2016-02-21T00:04:00.361Z,0
2016-02-21T00:05:00.364Z,0
2016-02-21T00:06:00.305Z,0
2016-02-21T00:07:00.323Z,0
2016-02-21T00:08:00.326Z,0
2016-02-21T00:09:00.249Z,0
2016-02-21T00:10:00.252Z,0
2016-02-21T00:11:00.209Z,0
2016-02-21T00:12:00.180Z,0
2016-02-21T00:13:00.182Z,0
2016-02-21T00:14:00.123Z,0
2016-02-21T00:15:00.125Z,0
2016-02-21T00:16:00.065Z,0
2016-02-21T00:17:00.053Z,0
2016-02-21T00:18:00.071Z,0
2016-02-21T00:18:59.996Z,0
2016-02-21T00:19:59.998Z,0
2016-02-21T00:21:00.001Z,0
2016-02-21T00:21:59.956Z,0
2016-02-21T00:22:59.944Z,0
2016-02-21T00:23:59.900Z,0
2016-02-21T00:24:59.853Z,0
2016-02-21T00:25:59.839Z,0
2016-02-21T00:26:59.812Z,0
2016-02-21T00:27:59.798Z,0
2016-02-21T00:28:59.786Z,0
2016-02-21T00:29:59.772Z,0
2016-02-21T00:30:59.728Z,0
2016-02-21T00:31:59.700Z,0
2016-02-21T00:32:59.672Z,0
2016-02-21T00:33:59.658Z,0
2016-02-21T00:34:59.646Z,0
2016-02-21T00:35:59.617Z,0
2016-02-21T00:36:59.588Z,0
2016-02-21T00:37:59.590Z,0
2016-02-21T00:38:59.546Z,0
2016-02-21T00:39:59.519Z,0
2016-02-21T00:40:59.505Z,0
2016-02-21T00:41:59.460Z,0
2016-02-21T00:42:59.432Z,0
2016-02-21T00:43:59.450Z,0
2016-02-21T00:44:59.423Z,0
2016-02-21T00:45:59.394Z,0
2016-02-21T00:46:59.365Z,0
2016-02-21T00:47:59.384Z,0
2016-02-21T00:48:59.308Z,0
2016-02-21T00:49:59.311Z,0
2016-02-21T00:50:59.297Z,0
2016-02-21T00:51:59.253Z,0
2016-02-21T00:52:59.241Z,0
2016-02-21T00:53:59.197Z,0
2016-02-21T00:54:59.168Z,0
2016-02-21T00:55:59.170Z,0
2016-02-21T00:56:59.125Z,0
2016-02-21T00:57:59.129Z,0
2016-02-21T00:58:59.117Z,0
2016-02-21T00:59:59.072Z,0
2016-02-21T01:00:59.044Z,0
2016-02-21T01:01:59.015Z,0
2016-02-21T01:02:58.986Z,0
2016-02-21T01:03:58.988Z,0
2016-02-21T01:04:58.944Z,0
2016-02-21T01:05:58.948Z,0
2016-02-21T01:06:58.950Z,0
2016-02-21T01:07:58.735Z,0
2016-02-21T01:08:58.877Z,0
2016-02-21T01:09:58.833Z,0
2016-02-21T01:10:58.821Z,0
2016-02-21T01:11:58.823Z,0
2016-02-21T01:12:58.778Z,0
2016-02-21T01:13:58.766Z,0
2016-02-21T01:14:58.737Z,0
2016-02-21T01:15:58.709Z,0
2016-02-21T01:16:58.679Z,0
2016-02-21T01:17:58.651Z,0
2016-02-21T01:18:58.640Z,0
2016-02-21T01:19:58.626Z,0
2016-02-21T01:20:58.582Z,0
2016-02-21T01:21:58.568Z,0
2016-02-21T01:22:58.556Z,0
2016-02-21T01:23:58.511Z,0
2016-02-21T01:24:58.515Z,0
2016-02-21T01:25:58.470Z,0
2016-02-21T01:26:58.457Z,0
2016-02-21T01:27:58.460Z,0
2016-02-21T01:28:58.400Z,0
2016-02-21T01:29:58.402Z,0
2016-02-21T01:30:58.358Z,0
2016-02-21T01:31:58.330Z,0
2016-02-21T01:32:58.348Z,0
2016-02-21T01:33:58.288Z,0
2016-02-21T01:34:58.135Z,0
2016-02-21T01:35:58.247Z,0
2016-02-21T01:36:58.233Z,0
2016-02-21T01:37:58.190Z,0
2016-02-21T01:38:58.176Z,0
2016-02-21T01:39:58.149Z,0
2016-02-21T01:40:58.135Z,0
2016-02-21T01:41:58.122Z,0
2016-02-21T01:42:58.093Z,0
2016-02-21T01:43:58.065Z,0
2016-02-21T01:44:58.068Z,0
2016-02-21T01:45:58.024Z,0
2016-02-21T01:46:58.011Z,0
2016-02-21T01:47:57.967Z,0
2016-02-21T01:48:57.845Z,0
2016-02-21T01:49:57.925Z,0
2016-02-21T01:50:57.912Z,0
2016-02-21T01:51:57.883Z,0
2016-02-21T01:52:57.871Z,0
2016-02-21T01:53:57.874Z,0
2016-02-21T01:54:57.814Z,0
2016-02-21T01:55:57.801Z,0
2016-02-21T01:56:57.772Z,0
2016-02-21T01:57:57.744Z,0
2016-02-21T01:58:57.746Z,0
2016-02-21T01:59:57.718Z,0
2016-02-21T02:00:57.689Z,0
2016-02-21T02:01:57.661Z,0
2016-02-21T02:02:57.632Z,0
2016-02-21T02:03:57.603Z,0
2016-02-21T02:04:57.590Z,0
2016-02-21T02:05:57.594Z,0
2016-02-21T02:06:57.534Z,0
2016-02-21T02:07:57.521Z,0
2016-02-21T02:08:57.508Z,0
2016-02-21T02:09:57.494Z,0
2016-02-21T02:10:57.466Z,0
2016-02-21T02:11:57.437Z,0
2016-02-21T02:12:57.393Z,0
2016-02-21T02:13:57.380Z,0
2016-02-21T02:14:57.399Z,0
2016-02-21T02:15:57.339Z,0
2016-02-21T02:16:57.326Z,0
2016-02-21T02:17:57.328Z,0
2016-02-21T02:18:57.269Z,0
2016-02-21T02:19:57.146Z,0
2016-02-21T02:20:57.227Z,0
2016-02-21T02:21:57.215Z,0
2016-02-21T02:22:57.170Z,0
2016-02-21T02:23:57.157Z,0
2016-02-21T02:24:57.159Z,0
2016-02-21T02:25:57.115Z,0
2016-02-21T02:26:57.087Z,0
2016-02-21T02:27:57.106Z,0
2016-02-21T02:28:57.046Z,0
2016-02-21T02:29:57.033Z,0
2016-02-21T02:30:57.004Z,0
2016-02-21T02:31:56.992Z,0
2016-02-21T02:32:56.947Z,0
2016-02-21T02:33:56.950Z,0
2016-02-21T02:34:56.906Z,0
2016-02-21T02:35:56.892Z,0
2016-02-21T02:36:56.880Z,0
2016-02-21T02:37:56.852Z,0
2016-02-21T02:38:56.822Z,0
2016-02-21T02:39:56.825Z,0
2016-02-21T02:40:56.781Z,0
2016-02-21T02:41:56.769Z,0
2016-02-21T02:42:56.724Z,0
2016-02-21T02:43:56.711Z,0
2016-02-21T02:44:56.557Z,0
2016-02-21T02:45:56.669Z,0
2016-02-21T02:46:56.656Z,0
2016-02-21T02:47:56.644Z,0
2016-02-21T02:48:56.599Z,0
2016-02-21T02:49:56.571Z,0
2016-02-21T02:50:56.543Z,0
2016-02-21T02:51:56.538Z,0
2016-02-21T02:52:56.485Z,0
2016-02-21T02:53:56.462Z,0
2016-02-21T02:54:56.424Z,0
2016-02-21T02:55:56.387Z,0
2016-02-21T02:56:56.383Z,0
2016-02-21T02:57:56.351Z,0
2016-02-21T02:58:56.335Z,0
2016-02-21T02:59:56.287Z,0
2016-02-21T03:00:56.271Z,0
2016-02-21T03:01:56.240Z,0
2016-02-21T03:02:56.210Z,0
2016-02-21T03:03:56.180Z,0
2016-02-21T03:04:56.165Z,0
2016-02-21T03:05:56.135Z,0
2016-02-21T03:06:56.121Z,0
2016-02-21T03:07:56.108Z,0
2016-02-21T03:08:56.064Z,0
2016-02-21T03:09:56.067Z,0
2016-02-21T03:10:56.022Z,0
2016-02-21T03:11:56.008Z,0
2016-02-21T03:12:56.027Z,0
2016-02-21T03:13:55.952Z,0
2016-02-21T03:14:55.970Z,0
2016-02-21T03:15:55.925Z,0
2016-02-21T03:16:55.897Z,0
2016-02-21T03:17:55.868Z,0
2016-02-21T03:18:55.840Z,0
2016-02-21T03:19:55.826Z,0
2016-02-21T03:20:55.813Z,0
2016-02-21T03:21:55.785Z,0
2016-02-21T03:22:55.757Z,0
2016-02-21T03:23:55.729Z,0
2016-02-21T03:24:55.699Z,0
2016-02-21T03:25:55.687Z,0
2016-02-21T03:26:55.659Z,0
2016-02-21T03:27:55.645Z,0
2016-02-21T03:28:55.632Z,0
2016-02-21T03:29:55.604Z,0
2016-02-21T03:30:55.591Z,0
2016-02-21T03:31:55.547Z,0
2016-02-21T03:32:55.518Z,0
2016-02-21T03:33:55.505Z,0
2016-02-21T03:34:55.492Z,0
2016-02-21T03:35:55.463Z,0
2016-02-21T03:36:55.435Z,0
2016-02-21T03:37:55.422Z,0
2016-02-21T03:38:55.394Z,0
2016-02-21T03:39:55.365Z,0
2016-02-21T03:40:55.336Z,0
2016-02-21T03:41:55.307Z,0
2016-02-21T03:42:55.295Z,0
2016-02-21T03:43:55.267Z,0
2016-02-21T03:44:55.269Z,0
2016-02-21T03:45:55.241Z,0
2016-02-21T03:46:55.213Z,0
2016-02-21T03:47:55.183Z,0
2016-02-21T03:48:55.155Z,0
2016-02-21T03:49:55.141Z,0
2016-02-21T03:50:55.114Z,0
2016-02-21T03:51:55.085Z,0
2016-02-21T03:52:55.057Z,0
2016-02-21T03:53:55.027Z,0
2016-02-21T03:54:55.015Z,0
2016-02-21T03:55:54.987Z,0
2016-02-21T03:56:54.817Z,0
2016-02-21T03:57:54.944Z,0
2016-02-21T03:58:54.932Z,0
2016-02-21T03:59:54.904Z,0
2016-02-21T04:00:54.875Z,0
2016-02-21T04:01:54.845Z,0
2016-02-21T04:02:54.848Z,0
2016-02-21T04:03:54.821Z,0
2016-02-21T04:04:54.807Z,0
2016-02-21T04:05:54.826Z,0
2016-02-21T04:06:54.766Z,0
2016-02-21T04:07:54.737Z,0
2016-02-21T04:08:54.708Z,0
2016-02-21T04:09:54.680Z,0
2016-02-21T04:10:54.666Z,0
2016-02-21T04:11:54.685Z,0
2016-02-21T04:12:54.626Z,0
2016-02-21T04:13:54.581Z,0
2016-02-21T04:14:54.584Z,0
2016-02-21T04:15:54.540Z,0
2016-02-21T04:16:54.480Z,0
2016-02-21T04:17:54.530Z,0
2016-02-21T04:18:54.470Z,0
2016-02-21T04:19:54.427Z,0
2016-02-21T04:20:54.460Z,0
2016-02-21T04:21:54.416Z,0
2016-02-21T04:22:54.371Z,0
2016-02-21T04:23:54.405Z,0
2016-02-21T04:24:54.346Z,0
2016-02-21T04:25:54.285Z,0
2016-02-21T04:26:54.257Z,0
2016-02-21T04:27:54.291Z,0
2016-02-21T04:28:54.294Z,0
2016-02-21T04:29:54.203Z,0
2016-02-21T04:30:54.220Z,0
2016-02-21T04:31:54.145Z,0
2016-02-21T04:32:54.102Z,0
2016-02-21T04:33:54.151Z,0
2016-02-21T04:34:54.092Z,0
2016-02-21T04:35:54.078Z,0
2016-02-21T04:36:54.065Z,0
2016-02-21T04:37:54.020Z,0
2016-02-21T04:38:53.993Z,0
2016-02-21T04:39:53.979Z,0
2016-02-21T04:40:53.920Z,0
2016-02-21T04:41:53.891Z,0
2016-02-21T04:42:53.863Z,0
2016-02-21T04:43:53.833Z,0
2016-02-21T04:44:53.805Z,0
2016-02-21T04:45:53.636Z,0
2016-02-21T04:46:53.780Z,0
2016-02-21T04:47:53.752Z,0
2016-02-21T04:48:53.769Z,0
2016-02-21T04:49:53.694Z,0
2016-02-21T04:50:53.665Z,0
2016-02-21T04:51:53.652Z,0
2016-02-21T04:52:53.623Z,0
2016-02-21T04:53:53.610Z,0
2016-02-21T04:54:53.599Z,0
2016-02-21T04:55:53.554Z,0
2016-02-21T04:56:53.526Z,0
2016-02-21T04:57:53.528Z,0
2016-02-21T04:58:53.468Z,0
2016-02-21T04:59:53.454Z,0
2016-02-21T05:00:53.426Z,0
2016-02-21T05:01:53.398Z,0
2016-02-21T05:02:53.401Z,0
2016-02-21T05:03:53.356Z,0
2016-02-21T05:04:53.359Z,0
2016-02-21T05:05:53.315Z,0
2016-02-21T05:06:53.286Z,0
2016-02-21T05:07:53.258Z,0
2016-02-21T05:08:53.245Z,0
2016-02-21T05:09:53.232Z,0
2016-02-21T05:10:53.188Z,0
2016-02-21T05:11:53.175Z,0
2016-02-21T05:12:53.161Z,0
2016-02-21T05:13:53.117Z,0
2016-02-21T05:14:53.106Z,0
2016-02-21T05:15:53.061Z,0
2016-02-21T05:16:53.033Z,0
2016-02-21T05:17:53.035Z,0
2016-02-21T05:18:52.991Z,0
2016-02-21T05:19:52.977Z,0
2016-02-21T05:20:52.949Z,0
2016-02-21T05:21:52.920Z,0
2016-02-21T05:22:52.924Z,0
2016-02-21T05:23:52.880Z,0
2016-02-21T05:24:52.851Z,0
2016-02-21T05:25:52.821Z,0
2016-02-21T05:26:52.793Z,0
2016-02-21T05:27:52.796Z,0
2016-02-21T05:28:52.752Z,0
2016-02-21T05:29:52.739Z,0
2016-02-21T05:30:52.727Z,0
2016-02-21T05:31:52.682Z,0
2016-02-21T05:32:52.669Z,0
2016-02-21T05:33:52.640Z,0
2016-02-21T05:34:52.595Z,0
2016-02-21T05:35:52.584Z,0
2016-02-21T05:36:52.555Z,0
2016-02-21T05:37:52.573Z,0
2016-02-21T05:38:52.514Z,0
2016-02-21T05:39:52.500Z,0
2016-02-21T05:40:52.472Z,0
2016-02-21T05:41:52.442Z,0
2016-02-21T05:42:52.430Z,0
2016-02-21T05:43:52.418Z,0
2016-02-21T05:44:52.389Z,0
2016-02-21T05:45:52.345Z,0
2016-02-21T05:46:52.316Z,0
2016-02-21T05:47:52.318Z,0
2016-02-21T05:48:52.274Z,0
2016-02-21T05:49:52.277Z,0
2016-02-21T05:50:52.233Z,0
2016-02-21T05:51:52.220Z,0
2016-02-21T05:52:51.442Z,0
2016-02-21T05:53:52.163Z,0
2016-02-21T05:54:52.149Z,0
2016-02-21T05:55:52.105Z,0
2016-02-21T05:56:52.093Z,0
2016-02-21T05:57:52.111Z,0
2016-02-21T05:58:52.036Z,0
2016-02-21T05:59:52.023Z,0
2016-02-21T06:00:51.979Z,0
2016-02-21T06:01:51.965Z,0
2016-02-21T06:02:51.969Z,0
2016-02-21T06:03:51.923Z,0
2016-02-21T06:04:51.755Z,0
2016-02-21T06:05:51.883Z,0
2016-02-21T06:06:51.854Z,0
2016-02-21T06:07:51.826Z,0
2016-02-21T06:08:51.812Z,0
2016-02-21T06:09:51.800Z,0
2016-02-21T06:10:51.755Z,0
2016-02-21T06:11:51.742Z,0
2016-02-21T06:12:51.714Z,0
2016-02-21T06:13:51.717Z,0
2016-02-21T06:14:51.689Z,0
2016-02-21T06:15:51.628Z,0
2016-02-21T06:16:51.616Z,0
2016-02-21T06:17:51.572Z,0
2016-02-21T06:18:51.575Z,0
2016-02-21T06:19:51.545Z,0
2016-02-21T06:20:51.533Z,0
2016-02-21T06:21:51.505Z,0
2016-02-21T06:22:51.475Z,0
2016-02-21T06:23:51.478Z,0
2016-02-21T06:24:51.418Z,0
2016-02-21T06:25:51.421Z,0
2016-02-21T06:26:51.377Z,0
2016-02-21T06:27:51.349Z,0
2016-02-21T06:28:51.366Z,0
2016-02-21T06:29:51.307Z,0
2016-02-21T06:30:51.309Z,0
2016-02-21T06:31:51.296Z,0
2016-02-21T06:32:51.251Z,0
2016-02-21T06:33:51.224Z,0
2016-02-21T06:34:51.180Z,0
2016-02-21T06:35:51.182Z,0
2016-02-21T06:36:51.138Z,0
2016-02-21T06:37:51.140Z,0
2016-02-21T06:38:51.096Z,5
2016-02-21T06:39:51.067Z,5
2016-02-21T06:40:51.055Z,5
2016-02-21T06:41:51.026Z,5
2016-02-21T06:42:51.029Z,5
2016-02-21T06:43:50.970Z,5
2016-02-21T06:44:50.956Z,5
2016-02-21T06:45:50.943Z,10
2016-02-21T06:46:50.914Z,10
2016-02-21T06:47:50.903Z,10
2016-02-21T06:48:50.842Z,15
2016-02-21T06:49:50.861Z,10
2016-02-21T06:50:50.816Z,15
2016-02-21T06:51:50.803Z,15
2016-02-21T06:52:50.774Z,15
2016-02-21T06:53:50.746Z,15
2016-02-21T06:54:50.750Z,15
2016-02-21T06:55:50.689Z,15
2016-02-21T06:56:50.692Z,15
2016-02-21T06:57:50.647Z,20
2016-02-21T06:58:50.619Z,20
2016-02-21T06:59:50.621Z,20
2016-02-21T07:00:50.609Z,25
2016-02-21T07:01:50.580Z,30
2016-02-21T07:02:50.536Z,30
2016-02-21T07:03:50.507Z,30
2016-02-21T07:04:50.495Z,30
2016-02-21T07:05:50.498Z,30
2016-02-21T07:06:50.453Z,30
2016-02-21T07:07:50.424Z,25
2016-02-21T07:08:50.412Z,25
2016-02-21T07:09:50.398Z,30
2016-02-21T07:10:50.354Z,35
2016-02-21T07:11:50.342Z,35
2016-02-21T07:12:50.328Z,35
2016-02-21T07:13:50.284Z,45
2016-02-21T07:14:50.272Z,40
2016-02-21T07:15:50.274Z,45
2016-02-21T07:16:50.214Z,50
2016-02-21T07:17:50.201Z,55
2016-02-21T07:18:50.173Z,55
2016-02-21T07:19:50.160Z,45
2016-02-21T07:20:49.975Z,45
2016-02-21T07:21:50.103Z,45
2016-02-21T07:22:49.964Z,45
2016-02-21T07:23:49.905Z,55
2016-02-21T07:24:49.892Z,50
2016-02-21T07:25:49.863Z,55
2016-02-21T07:26:49.992Z,65
2016-02-21T07:27:49.838Z,55
2016-02-21T07:28:49.949Z,65
2016-02-21T07:29:49.921Z,80
2016-02-21T07:30:49.767Z,75
2016-02-21T07:31:49.880Z,75
2016-02-21T07:32:49.867Z,80
2016-02-21T07:33:49.838Z,75
2016-02-21T07:34:49.825Z,75
2016-02-21T07:35:49.781Z,80
2016-02-21T07:36:49.768Z,85
2016-02-21T07:37:49.740Z,90
2016-02-21T07:38:49.727Z,90
2016-02-21T07:39:49.715Z,85
2016-02-21T07:40:49.670Z,85
2016-02-21T07:41:49.657Z,105
2016-02-21T07:42:49.643Z,105
2016-02-21T07:43:49.615Z,100
2016-02-21T07:44:49.617Z,90
2016-02-21T07:45:49.559Z,90
2016-02-21T07:46:49.545Z,90
2016-02-21T07:47:49.517Z,105
2016-02-21T07:48:49.363Z,110
2016-02-21T07:49:49.459Z,100
2016-02-21T07:50:49.477Z,105
2016-02-21T07:51:49.433Z,105
2016-02-21T07:52:49.406Z,100
2016-02-21T07:53:49.408Z,105
2016-02-21T07:54:49.348Z,105
2016-02-21T07:55:49.350Z,105
2016-02-21T07:56:49.322Z,125
2016-02-21T07:57:49.277Z,145
2016-02-21T07:58:49.281Z,100
2016-02-21T07:59:49.236Z,130
2016-02-21T08:00:49.239Z,145
2016-02-21T08:01:49.211Z,150
2016-02-21T08:02:49.182Z,140
2016-02-21T08:03:49.169Z,125
2016-02-21T08:04:49.125Z,120
2016-02-21T08:05:49.127Z,125
2016-02-21T08:06:49.099Z,135
2016-02-21T08:07:49.071Z,140
2016-02-21T08:08:49.043Z,145
2016-02-21T08:09:49.013Z,150
2016-02-21T08:10:49.001Z,145
2016-02-21T08:11:48.988Z,120
2016-02-21T08:12:48.959Z,130
2016-02-21T08:13:48.946Z,125
2016-02-21T08:14:48.918Z,135
2016-02-21T08:15:48.920Z,120
2016-02-21T08:16:48.876Z,115
2016-02-21T08:17:48.848Z,105
2016-02-21T08:18:48.834Z,115
2016-02-21T08:19:48.790Z,115
2016-02-21T08:20:48.777Z,135
2016-02-21T08:21:48.765Z,125
2016-02-21T08:22:48.736Z,145
2016-02-21T08:23:48.723Z,155
2016-02-21T08:24:48.710Z,150
2016-02-21T08:25:48.681Z,155
2016-02-21T08:26:48.652Z,135
2016-02-21T08:27:48.624Z,155
2016-02-21T08:28:48.596Z,195
2016-02-21T08:29:48.583Z,220
2016-02-21T08:30:48.555Z,175
2016-02-21T08:31:48.525Z,185
2016-02-21T08:32:48.528Z,200
2016-02-21T08:33:48.499Z,195
2016-02-21T08:34:48.472Z,170
2016-02-21T08:35:48.457Z,160
2016-02-21T08:36:48.430Z,150
2016-02-21T08:37:48.401Z,140
2016-02-21T08:38:48.373Z,130
2016-02-21T08:39:48.359Z,130
2016-02-21T08:40:48.331Z,135
2016-02-21T08:41:48.318Z,125
2016-02-21T08:42:48.289Z,135
2016-02-21T08:43:48.293Z,155
2016-02-21T08:44:48.248Z,140
2016-02-21T08:45:48.235Z,135
2016-02-21T08:46:48.206Z,135
2016-02-21T08:47:48.178Z,130
2016-02-21T08:48:48.165Z,130
2016-02-21T08:49:48.136Z,125
2016-02-21T08:50:48.124Z,120
2016-02-21T08:51:48.095Z,125
2016-02-21T08:52:48.067Z,115
2016-02-21T08:53:48.053Z,115
2016-02-21T08:54:48.041Z,130
2016-02-21T08:55:48.011Z,130
2016-02-21T08:56:47.983Z,130
2016-02-21T08:57:47.955Z,145
2016-02-21T08:58:47.942Z,140
2016-02-21T08:59:47.914Z,130
2016-02-21T09:00:47.900Z,150
2016-02-21T09:01:47.872Z,145
2016-02-21T09:02:47.859Z,135
2016-02-21T09:03:47.846Z,130
2016-02-21T09:04:47.802Z,140
2016-02-21T09:05:47.805Z,140
2016-02-21T09:06:47.760Z,155
2016-02-21T09:07:47.732Z,150
2016-02-21T09:08:47.719Z,145
2016-02-21T09:09:47.691Z,150
2016-02-21T09:10:47.677Z,140
2016-02-21T09:11:47.649Z,135
2016-02-21T09:12:47.635Z,150
2016-02-21T09:13:47.623Z,130
2016-02-21T09:14:47.595Z,150
2016-02-21T09:15:47.566Z,165
2016-02-21T09:16:47.537Z,155
2016-02-21T09:17:47.509Z,165
2016-02-21T09:18:47.495Z,165
2016-02-21T09:19:47.483Z,165
2016-02-21T09:20:47.454Z,155
2016-02-21T09:21:47.425Z,190
2016-02-21T09:22:47.398Z,195
2016-02-21T09:23:47.384Z,190
2016-02-21T09:24:47.355Z,190
2016-02-21T09:25:47.343Z,190
2016-02-21T09:26:47.345Z,170
2016-02-21T09:27:47.317Z,190
2016-02-21T09:28:47.288Z,180
2016-02-21T09:29:47.244Z,185
2016-02-21T09:30:47.231Z,175
2016-02-21T09:31:47.202Z,180
2016-02-21T09:32:47.174Z,155
2016-02-21T09:33:47.161Z,155
2016-02-21T09:34:47.149Z,165
2016-02-21T09:35:47.119Z,175
2016-02-21T09:36:47.122Z,180
2016-02-21T09:37:47.063Z,160
2016-02-21T09:38:47.049Z,170
2016-02-21T09:39:47.052Z,165
2016-02-21T09:40:47.023Z,180
2016-02-21T09:41:47.011Z,185
2016-02-21T09:42:47.013Z,185
2016-02-21T09:43:46.938Z,175
2016-02-21T09:44:46.940Z,160
2016-02-21T09:45:46.912Z,175
2016-02-21T09:46:46.899Z,145
2016-02-21T09:47:46.854Z,145
2016-02-21T09:48:46.827Z,140
2016-02-21T09:49:46.845Z,145
2016-02-21T09:50:46.784Z,120
2016-02-21T09:51:46.772Z,145
2016-02-21T09:52:46.743Z,165
2016-02-21T09:53:46.730Z,180
2016-02-21T09:54:46.718Z,180
2016-02-21T09:55:46.689Z,210
2016-02-21T09:56:46.676Z,210
2016-02-21T09:57:46.631Z,225
2016-02-21T09:58:46.619Z,250
2016-02-21T09:59:46.591Z,230
2016-02-21T10:00:46.562Z,245
2016-02-21T10:01:46.564Z,275
2016-02-21T10:02:46.536Z,275
2016-02-21T10:03:46.507Z,280
2016-02-21T10:04:46.558Z,245
2016-02-21T10:05:46.466Z,235
2016-02-21T10:06:46.453Z,240
2016-02-21T10:07:46.425Z,205
2016-02-21T10:08:46.271Z,220
2016-02-21T10:09:46.368Z,200
2016-02-21T10:10:46.355Z,215
2016-02-21T10:11:46.358Z,220
2016-02-21T10:12:46.330Z,240
2016-02-21T10:13:46.299Z,255
2016-02-21T10:14:46.272Z,290
2016-02-21T10:15:46.243Z,290
2016-02-21T10:16:46.246Z,300
2016-02-21T10:17:46.202Z,315
2016-02-21T10:18:46.188Z,355
2016-02-21T10:19:46.160Z,315
2016-02-21T10:20:46.148Z,315
2016-02-21T10:21:46.119Z,285
2016-02-21T10:22:46.075Z,250
2016-02-21T10:23:46.093Z,265
2016-02-21T10:24:46.065Z,220
2016-02-21T10:25:46.036Z,220
2016-02-21T10:26:46.007Z,260
2016-02-21T10:27:45.979Z,285
2016-02-21T10:28:45.966Z,375
2016-02-21T10:29:45.937Z,360
2016-02-21T10:30:45.925Z,385
2016-02-21T10:31:45.912Z,370
2016-02-21T10:32:45.898Z,340
2016-02-21T10:33:45.870Z,310
2016-02-21T10:34:45.842Z,305
2016-02-21T10:35:45.814Z,280
2016-02-21T10:36:45.784Z,320
2016-02-21T10:37:45.803Z,320
2016-02-21T10:38:45.774Z,290
2016-02-21T10:39:45.745Z,270
2016-02-21T10:40:45.702Z,245
2016-02-21T10:41:45.689Z,260
2016-02-21T10:42:45.660Z,295
2016-02-21T10:43:45.647Z,285
2016-02-21T10:44:45.618Z,245
2016-02-21T10:45:45.605Z,230
2016-02-21T10:46:45.608Z,265
2016-02-21T10:47:45.564Z,230
2016-02-21T10:48:45.535Z,235
2016-02-21T10:49:45.522Z,230
2016-02-21T10:50:45.493Z,235
2016-02-21T10:51:45.465Z,230
2016-02-21T10:52:45.452Z,225
2016-02-21T10:53:45.440Z,250
2016-02-21T10:54:45.427Z,245
2016-02-21T10:55:45.398Z,215
2016-02-21T10:56:45.367Z,225
2016-02-21T10:57:45.338Z,245
2016-02-21T10:58:45.309Z,220
2016-02-21T10:59:45.296Z,245
2016-02-21T11:00:45.283Z,280
2016-02-21T11:01:45.271Z,220
2016-02-21T11:02:45.242Z,235
2016-02-21T11:03:45.229Z,240
2016-02-21T11:04:45.764Z,275
2016-02-21T11:05:45.156Z,285
2016-02-21T11:06:45.159Z,325
2016-02-21T11:07:45.131Z,290
2016-02-21T11:08:45.117Z,405
2016-02-21T11:09:45.089Z,365
2016-02-21T11:10:45.061Z,400
2016-02-21T11:11:45.032Z,405
2016-02-21T11:12:45.019Z,420
2016-02-21T11:13:44.990Z,440
2016-02-21T11:14:45.352Z,370
2016-02-21T11:15:44.949Z,440
2016-02-21T11:16:44.936Z,380
2016-02-21T11:17:44.924Z,430
2016-02-21T11:18:44.911Z,450
2016-02-21T11:19:44.866Z,485
2016-02-21T11:20:44.853Z,400
2016-02-21T11:21:44.840Z,410
2016-02-21T11:22:44.812Z,345
2016-02-21T11:23:44.799Z,375
2016-02-21T11:24:44.754Z,365
2016-02-21T11:25:44.741Z,375
2016-02-21T11:26:44.713Z,340
2016-02-21T11:27:44.701Z,320
2016-02-21T11:28:44.687Z,310
2016-02-21T11:29:44.659Z,290
2016-02-21T11:30:44.630Z,280
2016-02-21T11:31:44.632Z,235
2016-02-21T11:32:44.604Z,225
2016-02-21T11:33:44.576Z,250
2016-02-21T11:34:44.548Z,295
2016-02-21T11:35:44.534Z,325
2016-02-21T11:36:44.505Z,265
2016-02-21T11:37:44.727Z,210
2016-02-21T11:38:44.480Z,290
2016-02-21T11:39:44.451Z,265
2016-02-21T11:40:44.422Z,290
2016-02-21T11:41:44.394Z,325
2016-02-21T11:42:44.397Z,260
2016-02-21T11:43:44.369Z,290
2016-02-21T11:44:44.355Z,305
2016-02-21T11:45:44.311Z,300
2016-02-21T11:46:44.297Z,305
2016-02-21T11:47:44.269Z,330
2016-02-21T11:48:44.257Z,360
2016-02-21T11:49:44.228Z,405
2016-02-21T11:50:44.215Z,270
2016-02-21T11:51:44.186Z,265
2016-02-21T11:52:44.189Z,250
2016-02-21T11:53:44.160Z,265
2016-02-21T11:54:44.132Z,210
2016-02-21T11:55:44.104Z,305
2016-02-21T11:56:44.090Z,280
2016-02-21T11:57:44.059Z,295
2016-02-21T11:58:44.031Z,280
2016-02-21T11:59:43.989Z,265
2016-02-21T12:00:43.960Z,335
2016-02-21T12:01:43.948Z,265
2016-02-21T12:02:43.891Z,215
2016-02-21T12:03:43.873Z,245
2016-02-21T12:04:43.824Z,235
2016-02-21T12:05:43.805Z,210
2016-02-21T12:06:43.803Z,195
2016-02-21T12:07:43.770Z,210
2016-02-21T12:08:43.739Z,210
2016-02-21T12:09:43.709Z,265
2016-02-21T12:10:43.678Z,235
2016-02-21T12:11:43.663Z,260
2016-02-21T12:12:43.633Z,260
2016-02-21T12:13:43.619Z,250
2016-02-21T12:14:43.606Z,240
2016-02-21T12:15:43.576Z,225
2016-02-21T12:16:43.563Z,230
2016-02-21T12:17:43.517Z,215
2016-02-21T12:18:43.505Z,220
2016-02-21T12:19:43.491Z,220
2016-02-21T12:20:43.463Z,205
2016-02-21T12:21:43.435Z,200
2016-02-21T12:22:43.406Z,180
2016-02-21T12:23:43.394Z,185
2016-02-21T12:24:43.381Z,220
2016-02-21T12:25:43.352Z,225
2016-02-21T12:26:43.339Z,220
2016-02-21T12:27:43.326Z,305
2016-02-21T12:28:43.297Z,330
2016-02-21T12:29:43.269Z,260
2016-02-21T12:30:43.240Z,255
2016-02-21T12:31:43.227Z,185
2016-02-21T12:32:43.199Z,205
2016-02-21T12:33:43.185Z,230
2016-02-21T12:34:43.158Z,275
2016-02-21T12:35:43.145Z,245
2016-02-21T12:36:43.115Z,275
2016-02-21T12:37:43.103Z,270
2016-02-21T12:38:43.074Z,280
2016-02-21T12:39:43.077Z,270
2016-02-21T12:40:43.048Z,215
2016-02-21T12:41:42.864Z,255
2016-02-21T12:42:42.992Z,240
2016-02-21T12:43:42.962Z,215
2016-02-21T12:44:42.950Z,175
2016-02-21T12:45:42.922Z,175
2016-02-21T12:46:42.893Z,165
2016-02-21T12:47:42.880Z,170
2016-02-21T12:48:42.866Z,170
2016-02-21T12:49:42.853Z,175
2016-02-21T12:50:42.811Z,160
2016-02-21T12:51:42.828Z,180
2016-02-21T12:52:42.783Z,170
2016-02-21T12:53:42.772Z,190
2016-02-21T12:54:42.727Z,150
2016-02-21T12:55:42.713Z,150
2016-02-21T12:56:42.686Z,150
2016-02-21T12:57:42.672Z,155
2016-02-21T12:58:42.644Z,170
2016-02-21T12:59:42.631Z,175
2016-02-21T13:00:42.633Z,200
2016-02-21T13:01:42.574Z,165
2016-02-21T13:02:42.560Z,150
2016-02-21T13:03:42.532Z,135
2016-02-21T13:04:42.519Z,130
2016-02-21T13:05:42.491Z,120
2016-02-21T13:06:42.479Z,120
2016-02-21T13:07:42.449Z,120
2016-02-21T13:08:42.421Z,125
2016-02-21T13:09:42.424Z,100
2016-02-21T13:10:42.395Z,115
2016-02-21T13:11:42.367Z,130
2016-02-21T13:12:42.337Z,145
2016-02-21T13:13:42.309Z,170
2016-02-21T13:14:42.296Z,155
2016-02-21T13:15:42.284Z,120
2016-02-21T13:16:42.256Z,100
2016-02-21T13:17:42.226Z,120
2016-02-21T13:18:42.214Z,125
2016-02-21T13:19:42.200Z,125
2016-02-21T13:20:42.172Z,140
2016-02-21T13:21:42.159Z,140
2016-02-21T13:22:42.131Z,150
2016-02-21T13:23:42.102Z,190
2016-02-21T13:24:42.072Z,200
2016-02-21T13:25:42.061Z,205
2016-02-21T13:26:42.032Z,210
2016-02-21T13:27:42.003Z,210
2016-02-21T13:28:42.006Z,195
2016-02-21T13:29:41.978Z,175
2016-02-21T13:30:41.964Z,195
2016-02-21T13:31:41.935Z,195
2016-02-21T13:32:41.907Z,200
2016-02-21T13:33:41.879Z,210
2016-02-21T13:34:41.865Z,180
2016-02-21T13:35:41.884Z,200
2016-02-21T13:36:41.809Z,165
2016-02-21T13:37:41.796Z,160
2016-02-21T13:38:41.782Z,165
2016-02-21T13:39:41.754Z,185
2016-02-21T13:40:41.726Z,155
2016-02-21T13:41:41.713Z,155
2016-02-21T13:42:41.700Z,155
2016-02-21T13:43:41.686Z,190
2016-02-21T13:44:41.643Z,155
2016-02-21T13:45:41.629Z,135
2016-02-21T13:46:41.601Z,140
2016-02-21T13:47:41.572Z,110
2016-02-21T13:48:41.559Z,90
2016-02-21T13:49:41.531Z,75
2016-02-21T13:50:41.612Z,85
2016-02-21T13:51:41.489Z,95
2016-02-21T13:52:41.461Z,105
2016-02-21T13:53:41.447Z,90
2016-02-21T13:54:41.419Z,105
2016-02-21T13:55:41.406Z,105
2016-02-21T13:56:41.394Z,100
2016-02-21T13:57:41.380Z,80
2016-02-21T13:58:41.352Z,85
2016-02-21T13:59:41.323Z,105
2016-02-21T14:00:41.294Z,145
2016-02-21T14:01:41.282Z,160
2016-02-21T14:02:41.254Z,155
2016-02-21T14:03:41.225Z,170
2016-02-21T14:04:41.055Z,175
2016-02-21T14:05:41.230Z,150
2016-02-21T14:06:41.155Z,160
2016-02-21T14:07:41.157Z,120
2016-02-21T14:08:41.113Z,125
2016-02-21T14:09:41.101Z,120
2016-02-21T14:10:41.088Z,110
2016-02-21T14:11:41.059Z,115
2016-02-21T14:12:41.045Z,150
2016-02-21T14:13:41.018Z,150
2016-02-21T14:14:41.004Z,155
2016-02-21T14:15:40.975Z,165